sensor_id;sensor_type;location;lat;lon;timestamp;temperature;humidity
31819;DHT22;18384;48.860;9.188;2022-09-09T00:02:10;17.90;94.70
31819;DHT22;18384;48.860;9.188;2022-09-09T00:05:12;17.90;94.50
31819;DHT22;18384;48.860;9.188;2022-09-09T00:07:52;18.00;94.80
31819;DHT22;18384;48.860;9.188;2022-09-09T00:10:27;18.00;94.60
31819;DHT22;18384;48.860;9.188;2022-09-09T00:13:13;18.00;94.50
31819;DHT22;18384;48.860;9.188;2022-09-09T00:16:15;18.10;94.30
31819;DHT22;18384;48.860;9.188;2022-09-09T00:19:06;18.00;94.30
31819;DHT22;18384;48.860;9.188;2022-09-09T00:21:38;18.00;94.20
31819;DHT22;18384;48.860;9.188;2022-09-09T00:26:48;18.00;94.20
31819;DHT22;18384;48.860;9.188;2022-09-09T00:29:33;18.10;94.40
31819;DHT22;18384;48.860;9.188;2022-09-09T00:32:17;18.00;94.50
31819;DHT22;18384;48.860;9.188;2022-09-09T00:34:53;18.00;94.20
31819;DHT22;18384;48.860;9.188;2022-09-09T00:37:38;17.90;94.40
31819;DHT22;18384;48.860;9.188;2022-09-09T00:40:32;17.90;94.10
31819;DHT22;18384;48.860;9.188;2022-09-09T00:43:21;17.90;94.00
31819;DHT22;18384;48.860;9.188;2022-09-09T00:53:35;18.00;93.70
31819;DHT22;18384;48.860;9.188;2022-09-09T00:56:49;18.10;94.10
31819;DHT22;18384;48.860;9.188;2022-09-09T00:59:52;18.10;93.90
31819;DHT22;18384;48.860;9.188;2022-09-09T01:07:42;18.10;93.80
31819;DHT22;18384;48.860;9.188;2022-09-09T01:10:24;18.20;93.50
31819;DHT22;18384;48.860;9.188;2022-09-09T01:13:30;18.20;93.60
31819;DHT22;18384;48.860;9.188;2022-09-09T01:16:00;18.20;93.60
31819;DHT22;18384;48.860;9.188;2022-09-09T01:18:33;18.20;93.80
31819;DHT22;18384;48.860;9.188;2022-09-09T01:21:56;18.20;93.80
31819;DHT22;18384;48.860;9.188;2022-09-09T01:24:42;18.20;93.50
31819;DHT22;18384;48.860;9.188;2022-09-09T01:27:36;18.20;93.40
31819;DHT22;18384;48.860;9.188;2022-09-09T01:30:10;18.30;93.30
31819;DHT22;18384;48.860;9.188;2022-09-09T01:32:43;18.20;93.60
31819;DHT22;18384;48.860;9.188;2022-09-09T01:35:55;18.20;93.30
31819;DHT22;18384;48.860;9.188;2022-09-09T01:38:43;18.20;93.80
31819;DHT22;18384;48.860;9.188;2022-09-09T01:41:09;18.30;93.50
31819;DHT22;18384;48.860;9.188;2022-09-09T01:43:36;18.30;93.60
31819;DHT22;18384;48.860;9.188;2022-09-09T01:46:02;18.20;93.60
31819;DHT22;18384;48.860;9.188;2022-09-09T01:48:28;18.20;93.80
31819;DHT22;18384;48.860;9.188;2022-09-09T01:50:55;18.30;93.80
31819;DHT22;18384;48.860;9.188;2022-09-09T01:53:21;18.20;93.40
31819;DHT22;18384;48.860;9.188;2022-09-09T01:56:02;18.20;93.60
31819;DHT22;18384;48.860;9.188;2022-09-09T01:58:52;18.20;93.60
31819;DHT22;18384;48.860;9.188;2022-09-09T02:03:28;18.20;93.90
31819;DHT22;18384;48.860;9.188;2022-09-09T02:06:15;18.20;93.60
31819;DHT22;18384;48.860;9.188;2022-09-09T02:09:03;18.20;93.80
31819;DHT22;18384;48.860;9.188;2022-09-09T02:11:31;18.20;93.90
31819;DHT22;18384;48.860;9.188;2022-09-09T02:14:15;18.10;94.20
31819;DHT22;18384;48.860;9.188;2022-09-09T02:16:51;18.10;93.50
31819;DHT22;18384;48.860;9.188;2022-09-09T02:19:25;18.10;93.90
31819;DHT22;18384;48.860;9.188;2022-09-09T02:21:57;18.00;94.10
31819;DHT22;18384;48.860;9.188;2022-09-09T02:24:27;17.90;94.10
31819;DHT22;18384;48.860;9.188;2022-09-09T02:26:58;17.90;94.40
31819;DHT22;18384;48.860;9.188;2022-09-09T02:29:34;17.80;94.30
31819;DHT22;18384;48.860;9.188;2022-09-09T02:32:06;17.90;94.40
31819;DHT22;18384;48.860;9.188;2022-09-09T02:34:39;19.80;94.80
31819;DHT22;18384;48.860;9.188;2022-09-09T02:37:09;17.60;93.80
31819;DHT22;18384;48.860;9.188;2022-09-09T02:39:36;17.60;94.20
31819;DHT22;18384;48.860;9.188;2022-09-09T02:42:04;17.60;94.00
31819;DHT22;18384;48.860;9.188;2022-09-09T02:44:31;17.50;94.10
31819;DHT22;18384;48.860;9.188;2022-09-09T02:47:21;17.60;94.40
31819;DHT22;18384;48.860;9.188;2022-09-09T02:50:17;17.60;94.10
31819;DHT22;18384;48.860;9.188;2022-09-09T02:53:16;17.50;94.40
31819;DHT22;18384;48.860;9.188;2022-09-09T02:57:26;17.50;94.60
31819;DHT22;18384;48.860;9.188;2022-09-09T02:59:53;17.50;94.90
31819;DHT22;18384;48.860;9.188;2022-09-09T03:02:23;17.50;95.00
31819;DHT22;18384;48.860;9.188;2022-09-09T03:04:50;17.50;94.90
31819;DHT22;18384;48.860;9.188;2022-09-09T03:07:21;17.50;95.00
31819;DHT22;18384;48.860;9.188;2022-09-09T03:09:47;17.50;95.00
31819;DHT22;18384;48.860;9.188;2022-09-09T03:12:13;17.40;95.00
31819;DHT22;18384;48.860;9.188;2022-09-09T03:14:39;17.30;95.30
31819;DHT22;18384;48.860;9.188;2022-09-09T03:17:06;17.40;95.00
31819;DHT22;18384;48.860;9.188;2022-09-09T03:19:32;17.40;95.00
31819;DHT22;18384;48.860;9.188;2022-09-09T03:21:58;17.70;94.80
31819;DHT22;18384;48.860;9.188;2022-09-09T03:24:25;17.40;94.90
31819;DHT22;18384;48.860;9.188;2022-09-09T03:26:51;17.40;95.20
31819;DHT22;18384;48.860;9.188;2022-09-09T03:29:17;17.30;94.90
31819;DHT22;18384;48.860;9.188;2022-09-09T03:31:44;17.30;95.00
31819;DHT22;18384;48.860;9.188;2022-09-09T03:34:10;17.20;94.70
31819;DHT22;18384;48.860;9.188;2022-09-09T03:36:37;17.20;94.70
31819;DHT22;18384;48.860;9.188;2022-09-09T03:39:03;17.20;94.90
31819;DHT22;18384;48.860;9.188;2022-09-09T03:41:30;17.30;95.00
31819;DHT22;18384;48.860;9.188;2022-09-09T03:43:56;17.20;95.00
31819;DHT22;18384;48.860;9.188;2022-09-09T03:46:24;17.20;94.90
31819;DHT22;18384;48.860;9.188;2022-09-09T03:48:51;17.20;95.10
31819;DHT22;18384;48.860;9.188;2022-09-09T03:51:20;17.20;95.20
31819;DHT22;18384;48.860;9.188;2022-09-09T03:53:47;17.20;95.10
31819;DHT22;18384;48.860;9.188;2022-09-09T03:56:13;17.20;94.90
31819;DHT22;18384;48.860;9.188;2022-09-09T03:58:40;17.40;95.20
31819;DHT22;18384;48.860;9.188;2022-09-09T04:01:09;17.30;94.80
31819;DHT22;18384;48.860;9.188;2022-09-09T04:03:39;17.60;95.00
31819;DHT22;18384;48.860;9.188;2022-09-09T04:06:06;17.30;94.90
31819;DHT22;18384;48.860;9.188;2022-09-09T04:08:35;17.40;94.70
31819;DHT22;18384;48.860;9.188;2022-09-09T04:11:02;17.40;95.00
31819;DHT22;18384;48.860;9.188;2022-09-09T04:13:36;17.40;94.70
31819;DHT22;18384;48.860;9.188;2022-09-09T04:16:05;17.50;94.60
31819;DHT22;18384;48.860;9.188;2022-09-09T04:18:32;17.50;94.80
31819;DHT22;18384;48.860;9.188;2022-09-09T04:20:59;17.50;94.50
31819;DHT22;18384;48.860;9.188;2022-09-09T04:23:25;17.40;94.70
31819;DHT22;18384;48.860;9.188;2022-09-09T04:25:56;17.50;94.60
31819;DHT22;18384;48.860;9.188;2022-09-09T04:28:26;17.50;94.60
31819;DHT22;18384;48.860;9.188;2022-09-09T04:30:53;17.50;94.60
31819;DHT22;18384;48.860;9.188;2022-09-09T04:33:19;17.50;94.90
31819;DHT22;18384;48.860;9.188;2022-09-09T04:35:48;17.40;94.90
31819;DHT22;18384;48.860;9.188;2022-09-09T04:38:19;17.50;94.80
31819;DHT22;18384;48.860;9.188;2022-09-09T04:40:49;17.50;94.70
31819;DHT22;18384;48.860;9.188;2022-09-09T04:43:17;17.60;94.70
31819;DHT22;18384;48.860;9.188;2022-09-09T04:45:47;17.50;94.60
31819;DHT22;18384;48.860;9.188;2022-09-09T04:48:13;17.50;94.70
31819;DHT22;18384;48.860;9.188;2022-09-09T04:50:40;17.50;94.80
31819;DHT22;18384;48.860;9.188;2022-09-09T04:53:06;17.50;94.60
31819;DHT22;18384;48.860;9.188;2022-09-09T04:55:33;17.60;94.80
31819;DHT22;18384;48.860;9.188;2022-09-09T04:58:07;17.60;94.90
31819;DHT22;18384;48.860;9.188;2022-09-09T05:00:35;17.60;94.60
31819;DHT22;18384;48.860;9.188;2022-09-09T05:03:05;17.40;94.80
31819;DHT22;18384;48.860;9.188;2022-09-09T05:05:32;17.50;94.70
31819;DHT22;18384;48.860;9.188;2022-09-09T05:08:02;17.40;94.80
31819;DHT22;18384;48.860;9.188;2022-09-09T05:10:34;17.50;94.70
31819;DHT22;18384;48.860;9.188;2022-09-09T05:13:02;17.50;94.80
31819;DHT22;18384;48.860;9.188;2022-09-09T05:15:30;17.50;94.80
31819;DHT22;18384;48.860;9.188;2022-09-09T05:18:00;17.50;95.00
31819;DHT22;18384;48.860;9.188;2022-09-09T05:20:28;17.50;94.90
31819;DHT22;18384;48.860;9.188;2022-09-09T05:22:56;17.50;95.00
31819;DHT22;18384;48.860;9.188;2022-09-09T05:25:23;17.60;95.10
31819;DHT22;18384;48.860;9.188;2022-09-09T05:27:51;17.60;94.80
31819;DHT22;18384;48.860;9.188;2022-09-09T05:30:19;17.70;94.50
31819;DHT22;18384;48.860;9.188;2022-09-09T05:32:45;17.70;94.40
31819;DHT22;18384;48.860;9.188;2022-09-09T05:35:13;17.80;94.80
31819;DHT22;18384;48.860;9.188;2022-09-09T05:37:39;17.80;94.30
31819;DHT22;18384;48.860;9.188;2022-09-09T05:40:05;17.80;94.30
31819;DHT22;18384;48.860;9.188;2022-09-09T05:42:32;17.90;94.80
31819;DHT22;18384;48.860;9.188;2022-09-09T05:44:58;17.90;94.30
31819;DHT22;18384;48.860;9.188;2022-09-09T05:47:24;18.00;94.50
31819;DHT22;18384;48.860;9.188;2022-09-09T05:49:53;18.00;94.00
31819;DHT22;18384;48.860;9.188;2022-09-09T05:52:20;18.10;94.20
31819;DHT22;18384;48.860;9.188;2022-09-09T05:54:46;18.20;94.40
31819;DHT22;18384;48.860;9.188;2022-09-09T05:57:12;18.20;94.40
31819;DHT22;18384;48.860;9.188;2022-09-09T05:59:39;18.30;94.30
31819;DHT22;18384;48.860;9.188;2022-09-09T06:02:05;18.30;94.30
31819;DHT22;18384;48.860;9.188;2022-09-09T06:04:31;18.20;94.50
31819;DHT22;18384;48.860;9.188;2022-09-09T06:06:57;18.30;94.10
31819;DHT22;18384;48.860;9.188;2022-09-09T06:09:24;18.30;94.20
31819;DHT22;18384;48.860;9.188;2022-09-09T06:11:50;18.40;94.50
31819;DHT22;18384;48.860;9.188;2022-09-09T06:14:16;18.50;94.00
31819;DHT22;18384;48.860;9.188;2022-09-09T06:16:43;18.50;93.90
31819;DHT22;18384;48.860;9.188;2022-09-09T06:19:09;18.70;93.90
31819;DHT22;18384;48.860;9.188;2022-09-09T06:21:37;18.60;94.00
31819;DHT22;18384;48.860;9.188;2022-09-09T06:24:05;18.60;93.80
31819;DHT22;18384;48.860;9.188;2022-09-09T06:26:35;18.70;93.90
31819;DHT22;18384;48.860;9.188;2022-09-09T06:29:03;18.70;93.50
31819;DHT22;18384;48.860;9.188;2022-09-09T06:31:31;18.80;93.70
31819;DHT22;18384;48.860;9.188;2022-09-09T06:34:00;18.80;93.50
31819;DHT22;18384;48.860;9.188;2022-09-09T06:36:30;18.80;93.20
31819;DHT22;18384;48.860;9.188;2022-09-09T06:38:59;18.90;93.30
31819;DHT22;18384;48.860;9.188;2022-09-09T06:41:28;18.90;93.20
31819;DHT22;18384;48.860;9.188;2022-09-09T06:43:56;18.90;93.30
31819;DHT22;18384;48.860;9.188;2022-09-09T06:46:23;18.90;93.00
31819;DHT22;18384;48.860;9.188;2022-09-09T06:48:54;19.00;93.30
31819;DHT22;18384;48.860;9.188;2022-09-09T06:51:30;19.10;93.20
31819;DHT22;18384;48.860;9.188;2022-09-09T06:54:02;19.10;93.20
31819;DHT22;18384;48.860;9.188;2022-09-09T06:56:31;19.10;93.20
31819;DHT22;18384;48.860;9.188;2022-09-09T06:59:00;19.20;92.60
31819;DHT22;18384;48.860;9.188;2022-09-09T07:01:34;20.70;93.20
31819;DHT22;18384;48.860;9.188;2022-09-09T07:04:02;19.40;93.30
31819;DHT22;18384;48.860;9.188;2022-09-09T07:06:34;19.50;93.40
31819;DHT22;18384;48.860;9.188;2022-09-09T07:09:04;19.40;92.40
31819;DHT22;18384;48.860;9.188;2022-09-09T07:11:33;19.40;92.70
31819;DHT22;18384;48.860;9.188;2022-09-09T07:14:03;19.50;92.80
31819;DHT22;18384;48.860;9.188;2022-09-09T07:16:29;19.50;92.10
31819;DHT22;18384;48.860;9.188;2022-09-09T07:18:56;19.50;92.10
31819;DHT22;18384;48.860;9.188;2022-09-09T07:21:25;19.40;92.30
31819;DHT22;18384;48.860;9.188;2022-09-09T07:23:52;19.20;92.40
31819;DHT22;18384;48.860;9.188;2022-09-09T07:26:21;19.30;92.20
31819;DHT22;18384;48.860;9.188;2022-09-09T07:28:49;19.30;92.40
31819;DHT22;18384;48.860;9.188;2022-09-09T07:31:21;19.20;92.70
31819;DHT22;18384;48.860;9.188;2022-09-09T07:33:52;19.10;92.60
31819;DHT22;18384;48.860;9.188;2022-09-09T07:36:33;19.10;92.80
31819;DHT22;18384;48.860;9.188;2022-09-09T07:39:06;19.30;92.60
31819;DHT22;18384;48.860;9.188;2022-09-09T07:41:40;19.30;92.60
31819;DHT22;18384;48.860;9.188;2022-09-09T07:44:10;19.50;92.60
31819;DHT22;18384;48.860;9.188;2022-09-09T07:46:38;19.40;92.50
31819;DHT22;18384;48.860;9.188;2022-09-09T07:49:05;19.50;92.70
31819;DHT22;18384;48.860;9.188;2022-09-09T07:51:37;19.50;92.50
31819;DHT22;18384;48.860;9.188;2022-09-09T07:54:09;19.50;92.40
31819;DHT22;18384;48.860;9.188;2022-09-09T07:56:36;19.50;92.50
31819;DHT22;18384;48.860;9.188;2022-09-09T07:59:04;19.70;92.60
31819;DHT22;18384;48.860;9.188;2022-09-09T08:01:37;19.60;91.90
31819;DHT22;18384;48.860;9.188;2022-09-09T08:04:13;19.70;92.30
31819;DHT22;18384;48.860;9.188;2022-09-09T08:06:51;19.80;92.30
31819;DHT22;18384;48.860;9.188;2022-09-09T08:09:20;19.90;92.30
31819;DHT22;18384;48.860;9.188;2022-09-09T08:11:46;20.00;91.30
31819;DHT22;18384;48.860;9.188;2022-09-09T08:14:13;20.10;91.30
31819;DHT22;18384;48.860;9.188;2022-09-09T08:16:44;20.00;91.50
31819;DHT22;18384;48.860;9.188;2022-09-09T08:19:13;20.00;91.60
31819;DHT22;18384;48.860;9.188;2022-09-09T08:21:42;19.80;91.80
31819;DHT22;18384;48.860;9.188;2022-09-09T08:24:10;19.90;91.70
31819;DHT22;18384;48.860;9.188;2022-09-09T08:26:39;19.90;91.40
31819;DHT22;18384;48.860;9.188;2022-09-09T08:29:08;20.10;91.30
31819;DHT22;18384;48.860;9.188;2022-09-09T08:31:38;20.20;91.30
31819;DHT22;18384;48.860;9.188;2022-09-09T08:34:09;20.30;91.30
31819;DHT22;18384;48.860;9.188;2022-09-09T08:36:46;20.40;91.40
31819;DHT22;18384;48.860;9.188;2022-09-09T08:39:18;20.60;91.10
31819;DHT22;18384;48.860;9.188;2022-09-09T08:42:47;20.50;91.00
31819;DHT22;18384;48.860;9.188;2022-09-09T08:53:03;20.40;91.30
31819;DHT22;18384;48.860;9.188;2022-09-09T08:56:21;20.30;91.40
31819;DHT22;18384;48.860;9.188;2022-09-09T08:58:51;20.20;91.50
31819;DHT22;18384;48.860;9.188;2022-09-09T09:02:37;20.30;91.30
31819;DHT22;18384;48.860;9.188;2022-09-09T09:05:31;20.50;91.50
31819;DHT22;18384;48.860;9.188;2022-09-09T09:08:54;20.60;91.40
31819;DHT22;18384;48.860;9.188;2022-09-09T09:12:00;20.80;91.00
31819;DHT22;18384;48.860;9.188;2022-09-09T09:14:36;20.90;91.00
31819;DHT22;18384;48.860;9.188;2022-09-09T09:17:11;21.10;89.80
31819;DHT22;18384;48.860;9.188;2022-09-09T09:19:40;21.10;89.50
31819;DHT22;18384;48.860;9.188;2022-09-09T09:22:26;21.20;88.40
31819;DHT22;18384;48.860;9.188;2022-09-09T09:25:19;21.20;88.00
31819;DHT22;18384;48.860;9.188;2022-09-09T09:28:13;21.30;89.30
31819;DHT22;18384;48.860;9.188;2022-09-09T09:30:50;21.20;87.20
31819;DHT22;18384;48.860;9.188;2022-09-09T09:36:39;21.10;87.40
31819;DHT22;18384;48.860;9.188;2022-09-09T09:39:08;20.90;87.90
31819;DHT22;18384;48.860;9.188;2022-09-09T09:41:38;20.60;87.10
31819;DHT22;18384;48.860;9.188;2022-09-09T09:44:26;20.50;88.50
31819;DHT22;18384;48.860;9.188;2022-09-09T09:47:14;20.30;89.40
31819;DHT22;18384;48.860;9.188;2022-09-09T09:49:54;20.40;90.20
31819;DHT22;18384;48.860;9.188;2022-09-09T09:52:24;20.50;90.80
31819;DHT22;18384;48.860;9.188;2022-09-09T09:54:53;20.60;90.60
31819;DHT22;18384;48.860;9.188;2022-09-09T09:57:26;20.60;89.10
31819;DHT22;18384;48.860;9.188;2022-09-09T10:00:17;20.60;88.90
31819;DHT22;18384;48.860;9.188;2022-09-09T10:02:48;20.70;87.50
31819;DHT22;18384;48.860;9.188;2022-09-09T10:05:22;20.80;86.60
31819;DHT22;18384;48.860;9.188;2022-09-09T10:08:51;20.90;86.60
31819;DHT22;18384;48.860;9.188;2022-09-09T10:11:30;21.00;86.50
31819;DHT22;18384;48.860;9.188;2022-09-09T10:14:30;21.10;85.30
31819;DHT22;18384;48.860;9.188;2022-09-09T10:18:02;21.20;83.50
31819;DHT22;18384;48.860;9.188;2022-09-09T10:33:57;21.60;83.30
31819;DHT22;18384;48.860;9.188;2022-09-09T10:36:48;21.90;82.50
31819;DHT22;18384;48.860;9.188;2022-09-09T10:39:37;22.10;83.70
31819;DHT22;18384;48.860;9.188;2022-09-09T10:42:12;22.20;83.20
31819;DHT22;18384;48.860;9.188;2022-09-09T10:45:01;22.30;82.80
31819;DHT22;18384;48.860;9.188;2022-09-09T10:53:08;22.70;80.80
31819;DHT22;18384;48.860;9.188;2022-09-09T10:55:41;22.90;81.60
31819;DHT22;18384;48.860;9.188;2022-09-09T10:58:15;23.10;81.20
31819;DHT22;18384;48.860;9.188;2022-09-09T11:00:53;23.00;80.20
31819;DHT22;18384;48.860;9.188;2022-09-09T11:03:40;23.00;78.20
31819;DHT22;18384;48.860;9.188;2022-09-09T11:06:18;22.90;81.30
31819;DHT22;18384;48.860;9.188;2022-09-09T11:08:46;22.90;81.20
31819;DHT22;18384;48.860;9.188;2022-09-09T11:11:32;22.60;82.50
31819;DHT22;18384;48.860;9.188;2022-09-09T11:14:13;22.40;81.70
31819;DHT22;18384;48.860;9.188;2022-09-09T11:16:58;22.30;82.70
31819;DHT22;18384;48.860;9.188;2022-09-09T11:19:42;22.00;83.90
31819;DHT22;18384;48.860;9.188;2022-09-09T11:23:11;21.70;86.80
31819;DHT22;18384;48.860;9.188;2022-09-09T11:25:42;21.10;91.10
31819;DHT22;18384;48.860;9.188;2022-09-09T11:41:09;20.00;94.50
31819;DHT22;18384;48.860;9.188;2022-09-09T11:43:49;20.00;94.70
31819;DHT22;18384;48.860;9.188;2022-09-09T11:46:20;20.10;94.00
31819;DHT22;18384;48.860;9.188;2022-09-09T11:49:03;19.50;94.30
31819;DHT22;18384;48.860;9.188;2022-09-09T11:51:33;20.00;93.10
31819;DHT22;18384;48.860;9.188;2022-09-09T11:54:33;20.10;93.60
31819;DHT22;18384;48.860;9.188;2022-09-09T11:57:36;20.20;93.50
31819;DHT22;18384;48.860;9.188;2022-09-09T12:00:03;19.80;93.50
31819;DHT22;18384;48.860;9.188;2022-09-09T12:02:30;20.30;92.80
31819;DHT22;18384;48.860;9.188;2022-09-09T12:05:15;20.40;92.00
31819;DHT22;18384;48.860;9.188;2022-09-09T12:07:59;20.50;91.50
31819;DHT22;18384;48.860;9.188;2022-09-09T12:10:29;20.60;90.60
31819;DHT22;18384;48.860;9.188;2022-09-09T12:13:23;20.60;91.40
31819;DHT22;18384;48.860;9.188;2022-09-09T12:15:52;20.60;92.40
31819;DHT22;18384;48.860;9.188;2022-09-09T12:18:45;20.60;91.10
31819;DHT22;18384;48.860;9.188;2022-09-09T12:21:33;20.70;91.20
31819;DHT22;18384;48.860;9.188;2022-09-09T12:24:11;20.90;91.10
31819;DHT22;18384;48.860;9.188;2022-09-09T12:27:07;20.90;91.20
31819;DHT22;18384;48.860;9.188;2022-09-09T12:30:14;21.00;90.40
31819;DHT22;18384;48.860;9.188;2022-09-09T12:32:41;21.00;89.90
31819;DHT22;18384;48.860;9.188;2022-09-09T12:35:26;21.00;90.30
31819;DHT22;18384;48.860;9.188;2022-09-09T12:38:01;20.90;90.50
31819;DHT22;18384;48.860;9.188;2022-09-09T12:40:32;21.00;90.60
31819;DHT22;18384;48.860;9.188;2022-09-09T12:43:22;21.00;90.20
31819;DHT22;18384;48.860;9.188;2022-09-09T12:46:02;20.90;88.70
31819;DHT22;18384;48.860;9.188;2022-09-09T12:48:47;20.90;90.00
31819;DHT22;18384;48.860;9.188;2022-09-09T12:51:21;20.80;86.10
31819;DHT22;18384;48.860;9.188;2022-09-09T12:53:53;20.90;88.70
31819;DHT22;18384;48.860;9.188;2022-09-09T12:56:24;21.00;86.60
31819;DHT22;18384;48.860;9.188;2022-09-09T12:58:53;21.00;87.50
31819;DHT22;18384;48.860;9.188;2022-09-09T13:01:26;21.10;87.60
31819;DHT22;18384;48.860;9.188;2022-09-09T13:04:01;21.10;86.70
31819;DHT22;18384;48.860;9.188;2022-09-09T13:06:32;21.30;86.30
31819;DHT22;18384;48.860;9.188;2022-09-09T13:09:00;21.40;87.40
31819;DHT22;18384;48.860;9.188;2022-09-09T13:11:49;21.60;87.10
31819;DHT22;18384;48.860;9.188;2022-09-09T13:14:30;21.70;87.10
31819;DHT22;18384;48.860;9.188;2022-09-09T13:17:03;21.80;84.50
31819;DHT22;18384;48.860;9.188;2022-09-09T13:19:35;21.90;83.30
31819;DHT22;18384;48.860;9.188;2022-09-09T13:22:34;21.90;84.80
31819;DHT22;18384;48.860;9.188;2022-09-09T13:25:22;22.10;84.80
31819;DHT22;18384;48.860;9.188;2022-09-09T13:28:03;22.20;83.50
31819;DHT22;18384;48.860;9.188;2022-09-09T13:30:35;22.40;84.60
31819;DHT22;18384;48.860;9.188;2022-09-09T13:33:30;22.40;82.30
31819;DHT22;18384;48.860;9.188;2022-09-09T13:36:08;22.40;83.70
31819;DHT22;18384;48.860;9.188;2022-09-09T13:38:53;22.60;82.60
31819;DHT22;18384;48.860;9.188;2022-09-09T13:41:25;22.60;80.00
31819;DHT22;18384;48.860;9.188;2022-09-09T13:44:38;22.70;81.50
31819;DHT22;18384;48.860;9.188;2022-09-09T13:47:53;22.60;80.20
31819;DHT22;18384;48.860;9.188;2022-09-09T13:50:30;22.50;80.00
31819;DHT22;18384;48.860;9.188;2022-09-09T13:52:58;22.40;80.10
31819;DHT22;18384;48.860;9.188;2022-09-09T13:55:28;22.40;79.70
31819;DHT22;18384;48.860;9.188;2022-09-09T13:57:57;22.40;79.80
31819;DHT22;18384;48.860;9.188;2022-09-09T14:00:29;22.50;79.20
31819;DHT22;18384;48.860;9.188;2022-09-09T14:02:57;22.60;81.30
31819;DHT22;18384;48.860;9.188;2022-09-09T14:05:23;22.70;79.80
31819;DHT22;18384;48.860;9.188;2022-09-09T14:07:49;22.80;79.20
31819;DHT22;18384;48.860;9.188;2022-09-09T14:10:16;23.00;78.30
31819;DHT22;18384;48.860;9.188;2022-09-09T14:12:42;23.10;78.10
31819;DHT22;18384;48.860;9.188;2022-09-09T14:15:10;23.20;77.90
31819;DHT22;18384;48.860;9.188;2022-09-09T14:17:37;23.20;76.10
31819;DHT22;18384;48.860;9.188;2022-09-09T14:20:04;23.10;76.70
31819;DHT22;18384;48.860;9.188;2022-09-09T14:22:34;23.00;76.00
31819;DHT22;18384;48.860;9.188;2022-09-09T14:25:02;23.00;75.20
31819;DHT22;18384;48.860;9.188;2022-09-09T14:27:29;23.10;76.00
31819;DHT22;18384;48.860;9.188;2022-09-09T14:29:55;23.00;77.20
31819;DHT22;18384;48.860;9.188;2022-09-09T14:32:23;23.00;75.70
31819;DHT22;18384;48.860;9.188;2022-09-09T14:34:49;23.10;76.20
31819;DHT22;18384;48.860;9.188;2022-09-09T14:37:15;23.10;75.40
31819;DHT22;18384;48.860;9.188;2022-09-09T14:39:42;23.00;75.30
31819;DHT22;18384;48.860;9.188;2022-09-09T14:42:13;22.90;75.00
31819;DHT22;18384;48.860;9.188;2022-09-09T14:44:39;22.80;74.80
31819;DHT22;18384;48.860;9.188;2022-09-09T14:47:06;22.70;75.20
31819;DHT22;18384;48.860;9.188;2022-09-09T14:49:36;22.40;74.60
31819;DHT22;18384;48.860;9.188;2022-09-09T14:52:03;22.40;75.00
31819;DHT22;18384;48.860;9.188;2022-09-09T14:54:31;22.30;75.70
31819;DHT22;18384;48.860;9.188;2022-09-09T14:56:58;22.40;75.50
31819;DHT22;18384;48.860;9.188;2022-09-09T14:59:24;22.30;75.30
31819;DHT22;18384;48.860;9.188;2022-09-09T15:01:50;22.30;76.10
31819;DHT22;18384;48.860;9.188;2022-09-09T15:04:16;22.40;76.20
31819;DHT22;18384;48.860;9.188;2022-09-09T15:06:43;22.40;77.00
31819;DHT22;18384;48.860;9.188;2022-09-09T15:09:12;22.50;75.90
31819;DHT22;18384;48.860;9.188;2022-09-09T15:11:38;22.40;74.30
31819;DHT22;18384;48.860;9.188;2022-09-09T15:14:06;22.40;75.10
31819;DHT22;18384;48.860;9.188;2022-09-09T15:16:33;22.50;75.80
31819;DHT22;18384;48.860;9.188;2022-09-09T15:19:01;22.40;74.30
31819;DHT22;18384;48.860;9.188;2022-09-09T15:21:34;22.40;75.60
31819;DHT22;18384;48.860;9.188;2022-09-09T15:24:01;22.40;74.10
31819;DHT22;18384;48.860;9.188;2022-09-09T15:26:27;22.30;74.60
31819;DHT22;18384;48.860;9.188;2022-09-09T15:28:53;22.20;73.50
31819;DHT22;18384;48.860;9.188;2022-09-09T15:31:25;22.20;74.00
31819;DHT22;18384;48.860;9.188;2022-09-09T15:34:11;22.20;74.00
31819;DHT22;18384;48.860;9.188;2022-09-09T15:36:41;22.10;74.50
31819;DHT22;18384;48.860;9.188;2022-09-09T15:39:14;22.20;74.50
31819;DHT22;18384;48.860;9.188;2022-09-09T15:41:42;22.20;74.40
31819;DHT22;18384;48.860;9.188;2022-09-09T15:44:12;22.20;74.50
31819;DHT22;18384;48.860;9.188;2022-09-09T15:46:40;22.20;74.80
31819;DHT22;18384;48.860;9.188;2022-09-09T15:49:11;22.30;76.90
31819;DHT22;18384;48.860;9.188;2022-09-09T15:51:57;22.20;75.60
31819;DHT22;18384;48.860;9.188;2022-09-09T15:54:25;22.10;76.70
31819;DHT22;18384;48.860;9.188;2022-09-09T15:56:57;22.00;77.00
31819;DHT22;18384;48.860;9.188;2022-09-09T15:59:27;21.90;77.60
31819;DHT22;18384;48.860;9.188;2022-09-09T16:01:55;21.70;76.60
31819;DHT22;18384;48.860;9.188;2022-09-09T16:04:22;21.70;76.50
31819;DHT22;18384;48.860;9.188;2022-09-09T16:06:54;21.60;78.50
31819;DHT22;18384;48.860;9.188;2022-09-09T16:09:25;21.50;76.90
31819;DHT22;18384;48.860;9.188;2022-09-09T16:11:56;21.50;76.50
31819;DHT22;18384;48.860;9.188;2022-09-09T16:14:24;21.40;78.50
31819;DHT22;18384;48.860;9.188;2022-09-09T16:16:53;21.40;77.70
31819;DHT22;18384;48.860;9.188;2022-09-09T16:19:19;21.40;79.50
31819;DHT22;18384;48.860;9.188;2022-09-09T16:21:46;21.40;78.60
31819;DHT22;18384;48.860;9.188;2022-09-09T16:24:14;21.40;78.80
31819;DHT22;18384;48.860;9.188;2022-09-09T16:26:46;21.40;78.20
31819;DHT22;18384;48.860;9.188;2022-09-09T16:29:15;21.10;76.20
31819;DHT22;18384;48.860;9.188;2022-09-09T16:31:43;20.90;76.00
31819;DHT22;18384;48.860;9.188;2022-09-09T16:34:10;20.70;76.00
31819;DHT22;18384;48.860;9.188;2022-09-09T16:36:38;20.40;77.20
31819;DHT22;18384;48.860;9.188;2022-09-09T16:39:11;20.10;81.60
31819;DHT22;18384;48.860;9.188;2022-09-09T16:41:40;20.00;83.60
31819;DHT22;18384;48.860;9.188;2022-09-09T16:44:09;19.80;84.90
31819;DHT22;18384;48.860;9.188;2022-09-09T16:46:39;19.70;85.10
31819;DHT22;18384;48.860;9.188;2022-09-09T16:49:09;19.70;85.70
31819;DHT22;18384;48.860;9.188;2022-09-09T16:51:48;19.60;85.30
31819;DHT22;18384;48.860;9.188;2022-09-09T16:54:16;19.50;86.10
31819;DHT22;18384;48.860;9.188;2022-09-09T16:56:44;19.40;89.70
31819;DHT22;18384;48.860;9.188;2022-09-09T16:59:14;19.40;91.00
31819;DHT22;18384;48.860;9.188;2022-09-09T17:01:43;19.40;91.50
31819;DHT22;18384;48.860;9.188;2022-09-09T17:04:14;19.40;91.70
31819;DHT22;18384;48.860;9.188;2022-09-09T17:06:47;19.40;92.10
31819;DHT22;18384;48.860;9.188;2022-09-09T17:09:15;19.30;92.10
31819;DHT22;18384;48.860;9.188;2022-09-09T17:11:42;19.40;92.90
31819;DHT22;18384;48.860;9.188;2022-09-09T17:14:12;19.40;92.20
31819;DHT22;18384;48.860;9.188;2022-09-09T17:16:40;19.40;91.70
31819;DHT22;18384;48.860;9.188;2022-09-09T17:19:07;19.40;92.30